Time;durP1;ratioP1;P1;durP2;ratioP2;P2;SDS_P1;SDS_P2;PMS_P1;PMS_P2;Temp;Humidity;BMP_temperature;BMP_pressure;BME280_temperature;BME280_humidity;BME280_pressure;Samples;Min_cycle;Max_cycle;Signal;HPM_P1;HPM_P2
2022/07/02 00:00:23;;;;;;;9.23;8.07;;;14.70;99.90;;;;;;2112203;28;20119;-65
2022/07/02 00:01:24;;;;;;;11.52;8.05;;;14.70;99.90;;;;;;2112585;28;20568;-63
2022/07/02 00:02:25;;;;;;;12.90;8.68;;;14.70;99.90;;;;;;2113680;28;20568;-65
2022/07/02 00:03:36;;;;;;;9.23;7.60;;;14.70;99.90;;;;;;2115185;28;20045;-64
2022/07/02 00:04:40;;;;;;;10.77;7.90;;;14.80;99.90;;;;;;2115766;28;20038;-64
2022/07/02 00:05:47;;;;;;;8.95;7.97;;;14.80;99.90;;;;;;2115619;28;20040;-64
2022/07/02 00:06:48;;;;;;;10.20;8.25;;;14.80;99.90;;;;;;2115761;28;20080;-64
2022/07/02 00:07:50;;;;;;;10.63;8.30;;;14.80;99.90;;;;;;2115987;28;20065;-64
2022/07/02 00:08:51;;;;;;;11.55;7.90;;;14.80;99.90;;;;;;2115674;28;20092;-66
2022/07/02 00:09:56;;;;;;;10.65;7.93;;;14.90;99.90;;;;;;2115162;28;20748;-66
2022/07/02 00:10:58;;;;;;;8.38;7.35;;;14.90;99.90;;;;;;2115610;28;20040;-64
2022/07/02 00:12:00;;;;;;;8.07;6.95;;;14.90;99.90;;;;;;2115669;28;20024;-64
2022/07/02 00:13:01;;;;;;;8.48;7.22;;;14.90;99.90;;;;;;2115031;28;20634;-64
2022/07/02 00:14:03;;;;;;;9.15;7.28;;;14.90;99.90;;;;;;2115108;28;20042;-65
2022/07/02 00:15:04;;;;;;;8.70;7.40;;;14.80;99.90;;;;;;2114975;28;20019;-65
2022/07/02 00:16:08;;;;;;;9.40;7.22;;;14.90;99.90;;;;;;2115019;28;20541;-64
2022/07/02 00:17:09;;;;;;;10.25;7.50;;;14.90;99.90;;;;;;2115655;28;20094;-64
2022/07/02 00:18:11;;;;;;;10.23;6.85;;;14.80;99.90;;;;;;2106406;28;20024;-62
2022/07/02 00:19:14;;;;;;;8.38;7.47;;;14.90;99.90;;;;;;2106546;28;20027;-64
2022/07/02 00:20:14;;;;;;;8.68;7.13;;;14.90;99.90;;;;;;2115137;28;20027;-64
2022/07/02 00:21:16;;;;;;;7.90;7.10;;;14.90;99.90;;;;;;2115053;28;20019;-64
2022/07/02 00:22:17;;;;;;;7.60;6.78;;;14.90;99.90;;;;;;2115630;27;20071;-63
2022/07/02 00:23:18;;;;;;;8.20;7.25;;;14.90;99.90;;;;;;2114944;28;20035;-65
2022/07/02 00:24:19;;;;;;;7.05;6.35;;;14.90;99.90;;;;;;2115141;28;20043;-64
2022/07/02 00:25:20;;;;;;;7.32;6.63;;;14.90;99.90;;;;;;2115745;28;20023;-65
2022/07/02 00:26:32;;;;;;;7.05;6.32;;;14.80;99.90;;;;;;2115656;27;20038;-64
2022/07/02 00:27:36;;;;;;;7.82;6.35;;;14.90;99.90;;;;;;2114603;28;20132;-63
2022/07/02 00:28:42;;;;;;;7.45;6.20;;;14.80;99.90;;;;;;2106240;28;20158;-64
2022/07/02 00:29:51;;;;;;;9.93;6.68;;;14.80;99.90;;;;;;2106724;28;20027;-64
2022/07/02 00:30:52;;;;;;;7.60;6.68;;;14.70;99.90;;;;;;2114863;28;20027;-64
2022/07/02 00:31:54;;;;;;;7.97;6.78;;;14.70;99.90;;;;;;2115627;27;20682;-64
2022/07/02 00:32:54;;;;;;;7.88;7.00;;;14.70;99.90;;;;;;2114782;28;20030;-67
2022/07/02 00:33:56;;;;;;;9.00;6.78;;;14.60;99.90;;;;;;2114845;28;20496;-66
2022/07/02 00:34:58;;;;;;;7.53;6.72;;;14.60;99.90;;;;;;2115481;27;20024;-65
2022/07/02 00:35:59;;;;;;;7.22;6.53;;;14.70;99.90;;;;;;2115561;27;20012;-66
2022/07/02 00:37:00;;;;;;;7.82;6.70;;;14.60;99.90;;;;;;2115456;27;20642;-64
2022/07/02 00:38:01;;;;;;;7.47;6.78;;;14.60;99.90;;;;;;2115266;27;20827;-66
2022/07/02 00:39:02;;;;;;;7.40;6.70;;;14.60;99.90;;;;;;2115315;27;20026;-66
2022/07/02 00:40:08;;;;;;;7.72;6.55;;;14.60;99.90;;;;;;2115210;27;20633;-64
2022/07/02 00:41:08;;;;;;;8.25;7.07;;;14.60;99.90;;;;;;2114682;28;20722;-64
2022/07/02 00:42:10;;;;;;;9.93;7.65;;;14.50;99.90;;;;;;2114777;28;20093;-64
2022/07/02 00:43:12;;;;;;;9.05;7.70;;;14.50;99.90;;;;;;2115381;28;20035;-65
2022/07/02 00:44:13;;;;;;;8.82;7.60;;;14.50;99.90;;;;;;2115576;27;20594;-66
2022/07/02 00:45:16;;;;;;;10.38;8.10;;;14.50;99.90;;;;;;2114779;28;20023;-66
2022/07/02 00:46:19;;;;;;;11.63;8.10;;;14.50;99.90;;;;;;2114910;28;20035;-65
2022/07/02 00:47:23;;;;;;;9.85;8.25;;;14.60;99.90;;;;;;2115616;27;20024;-66
2022/07/02 00:48:24;;;;;;;9.07;7.35;;;14.50;99.90;;;;;;2115440;27;20482;-64
2022/07/02 00:49:27;;;;;;;9.50;7.68;;;14.50;99.90;;;;;;2115149;28;20036;-64
2022/07/02 00:50:28;;;;;;;8.02;7.18;;;14.50;99.90;;;;;;2115368;27;20537;-66
2022/07/02 00:51:29;;;;;;;8.18;7.28;;;14.50;99.90;;;;;;2115536;27;20035;-66
2022/07/02 00:52:30;;;;;;;8.45;7.57;;;14.50;99.90;;;;;;2115407;27;20028;-67
2022/07/02 00:53:30;;;;;;;8.45;7.60;;;14.50;99.90;;;;;;2115462;27;20089;-65
2022/07/02 00:54:31;;;;;;;10.88;8.50;;;14.50;99.90;;;;;;2114707;28;20020;-64
2022/07/02 00:55:32;;;;;;;9.00;7.68;;;14.50;99.90;;;;;;2115060;28;20023;-66
2022/07/02 00:56:33;;;;;;;8.40;7.40;;;14.50;99.90;;;;;;2116183;27;20468;-65
2022/07/02 00:57:34;;;;;;;8.27;7.38;;;14.50;99.90;;;;;;2116342;27;20042;-65
2022/07/02 00:58:36;;;;;;;10.13;7.20;;;14.50;99.90;;;;;;2116262;27;20054;-66
2022/07/02 00:59:37;;;;;;;9.88;7.15;;;14.50;99.90;;;;;;2116092;28;20385;-65
2022/07/02 01:00:38;;;;;;;9.68;7.35;;;14.60;99.90;;;;;;2116251;28;20042;-65
2022/07/02 01:01:38;;;;;;;7.50;6.70;;;14.60;99.90;;;;;;2115524;27;20020;-65
2022/07/02 01:02:42;;;;;;;9.30;6.65;;;14.60;99.90;;;;;;2114974;28;20523;-64
2022/07/02 01:03:47;;;;;;;8.25;6.60;;;14.60;99.90;;;;;;2114336;28;20495;-65
2022/07/02 01:04:50;;;;;;;7.43;6.53;;;14.60;99.90;;;;;;2115524;27;20115;-65
2022/07/02 01:05:51;;;;;;;8.68;6.93;;;14.60;99.90;;;;;;2115307;28;20039;-66
2022/07/02 01:06:53;;;;;;;9.23;6.72;;;14.70;99.90;;;;;;2115741;27;20040;-64
2022/07/02 01:10:48;;;;;;;10.32;6.80;;;14.60;99.90;;;;;;2115070;27;20418;-65
2022/07/02 01:11:50;;;;;;;7.68;6.70;;;14.60;99.90;;;;;;2115551;27;20032;-66
2022/07/02 01:12:51;;;;;;;8.68;6.75;;;14.60;99.90;;;;;;2115538;27;20023;-65
2022/07/02 01:13:54;;;;;;;9.02;6.70;;;14.60;99.90;;;;;;2114457;27;20570;-64
2022/07/02 01:14:56;;;;;;;8.45;6.70;;;14.60;99.90;;;;;;2114144;28;20035;-65
2022/07/02 01:15:57;;;;;;;8.02;6.60;;;14.60;99.90;;;;;;2113801;28;20057;-65
2022/07/02 01:16:58;;;;;;;6.53;5.90;;;14.60;99.90;;;;;;2113636;28;20027;-66
2022/07/02 01:18:02;;;;;;;6.45;5.85;;;14.60;99.90;;;;;;2114223;28;20563;-65
2022/07/02 01:19:04;;;;;;;6.70;6.00;;;14.60;99.90;;;;;;2113945;28;20035;-64
2022/07/02 01:20:05;;;;;;;8.93;6.55;;;14.60;99.90;;;;;;2113551;28;20027;-66
2022/07/02 01:21:06;;;;;;;8.10;6.50;;;14.50;99.90;;;;;;2114039;28;20055;-65
2022/07/02 01:22:15;;;;;;;6.53;5.80;;;14.60;99.90;;;;;;2114110;28;20035;-64
2022/07/02 01:23:15;;;;;;;5.55;5.05;;;14.60;99.90;;;;;;2114259;28;20030;-65
2022/07/02 01:24:24;;;;;;;7.05;5.72;;;14.50;99.90;;;;;;2114335;28;20028;-66
2022/07/02 01:25:25;;;;;;;5.60;4.88;;;14.50;99.90;;;;;;2114066;28;20408;-67
2022/07/02 01:26:25;;;;;;;6.60;5.40;;;14.50;99.90;;;;;;2114001;28;20023;-66
2022/07/02 01:27:26;;;;;;;6.60;5.10;;;14.60;99.90;;;;;;2113642;28;20547;-66
2022/07/02 01:28:27;;;;;;;5.85;4.75;;;14.60;99.90;;;;;;2113740;28;20024;-67
2022/07/02 01:29:27;;;;;;;5.70;4.55;;;14.60;99.90;;;;;;2113016;28;20031;-67
2022/07/02 01:30:28;;;;;;;6.10;4.50;;;14.60;99.90;;;;;;2113315;28;20031;-66
2022/07/02 01:31:29;;;;;;;4.90;4.35;;;14.60;99.90;;;;;;2113939;28;20132;-65
2022/07/02 01:32:30;;;;;;;5.95;5.25;;;14.60;99.90;;;;;;2114031;28;20024;-66
2022/07/02 01:33:31;;;;;;;5.47;4.90;;;14.60;99.90;;;;;;2113961;28;20454;-66
2022/07/02 01:34:39;;;;;;;7.65;5.22;;;14.60;99.90;;;;;;2113881;28;20465;-66
2022/07/02 01:35:40;;;;;;;8.13;5.18;;;14.60;99.90;;;;;;2113856;28;20035;-66
2022/07/02 01:36:40;;;;;;;5.30;4.45;;;14.60;99.90;;;;;;2113966;28;20035;-66
2022/07/02 01:37:41;;;;;;;6.13;4.47;;;14.60;99.90;;;;;;2113814;28;20047;-66
2022/07/02 01:38:42;;;;;;;4.43;4.03;;;14.70;99.90;;;;;;2113043;28;20024;-65
2022/07/02 01:39:44;;;;;;;5.20;4.63;;;14.60;99.90;;;;;;2112916;28;20055;-66
2022/07/02 01:40:44;;;;;;;4.93;4.45;;;14.60;99.90;;;;;;2113911;28;20063;-66
2022/07/02 01:41:45;;;;;;;5.53;4.30;;;14.70;99.90;;;;;;2113120;28;20020;-66
2022/07/02 01:42:46;;;;;;;4.85;4.30;;;14.70;99.90;;;;;;2113440;28;20792;-65
2022/07/02 01:43:46;;;;;;;5.45;4.22;;;14.70;99.90;;;;;;2113225;28;20032;-66
2022/07/02 01:44:47;;;;;;;5.00;4.50;;;14.70;99.90;;;;;;2113249;28;20095;-66
2022/07/02 01:45:48;;;;;;;4.80;4.30;;;14.70;99.90;;;;;;2113733;28;20527;-65
2022/07/02 01:46:48;;;;;;;4.88;4.25;;;14.70;99.90;;;;;;2113805;28;20031;-66
2022/07/02 01:47:49;;;;;;;5.78;4.30;;;14.70;99.90;;;;;;2113941;28;20027;-66
2022/07/02 01:48:50;;;;;;;5.68;3.95;;;14.70;99.90;;;;;;2113799;28;20027;-66
2022/07/02 01:49:50;;;;;;;4.80;4.07;;;14.70;99.90;;;;;;2112999;28;20031;-65
2022/07/02 01:50:51;;;;;;;3.90;3.60;;;14.70;99.90;;;;;;2096217;28;20102;-66
2022/07/02 01:51:52;;;;;;;4.32;3.55;;;14.70;99.90;;;;;;2104700;28;20130;-65
2022/07/02 01:52:56;;;;;;;4.32;3.90;;;14.70;99.90;;;;;;2113174;28;20489;-66
2022/07/02 01:53:56;;;;;;;5.00;4.07;;;14.70;99.90;;;;;;2113179;28;20051;-67
2022/07/02 01:54:57;;;;;;;6.38;4.20;;;14.70;99.90;;;;;;2113152;28;20031;-67
2022/07/02 01:55:58;;;;;;;4.82;4.00;;;14.70;99.90;;;;;;2113663;28;20047;-66
2022/07/02 01:56:59;;;;;;;4.70;4.20;;;14.70;99.90;;;;;;2113123;28;20019;-67
2022/07/02 01:58:00;;;;;;;5.00;4.20;;;14.70;99.90;;;;;;2113204;28;20413;-67
2022/07/02 01:59:02;;;;;;;4.53;3.80;;;14.70;99.90;;;;;;2113073;28;20035;-67
2022/07/02 02:00:05;;;;;;;4.30;3.88;;;14.70;99.90;;;;;;2113501;28;20035;-66
2022/07/02 02:01:06;;;;;;;5.30;4.20;;;14.70;99.90;;;;;;2113271;28;20573;-66
2022/07/02 02:02:07;;;;;;;5.53;4.30;;;14.70;99.90;;;;;;2113352;28;20060;-65
2022/07/02 02:03:07;;;;;;;4.82;4.32;;;14.60;99.90;;;;;;2114170;28;20035;-66
2022/07/02 02:04:09;;;;;;;5.00;4.30;;;14.60;99.90;;;;;;2113501;28;20105;-65
2022/07/02 02:05:10;;;;;;;4.45;3.90;;;14.70;99.90;;;;;;2113324;28;20513;-65
2022/07/02 02:06:10;;;;;;;5.65;4.20;;;14.70;99.90;;;;;;2113397;28;20027;-65
2022/07/02 02:07:11;;;;;;;8.60;4.15;;;14.60;99.90;;;;;;2104777;28;20045;-64
2022/07/02 02:08:12;;;;;;;6.60;4.78;;;14.70;99.90;;;;;;2113304;28;20551;-65
2022/07/02 02:09:12;;;;;;;4.95;4.30;;;14.70;99.90;;;;;;2113850;28;20027;-65
2022/07/02 02:10:13;;;;;;;4.50;4.10;;;14.70;99.90;;;;;;2114085;28;20106;-65
2022/07/02 02:11:14;;;;;;;5.82;4.22;;;14.70;99.90;;;;;;2113490;28;20117;-65
2022/07/02 02:12:15;;;;;;;5.47;4.00;;;14.70;99.90;;;;;;2113448;28;20041;-65
2022/07/02 02:13:16;;;;;;;4.57;3.90;;;14.70;99.90;;;;;;2113923;28;20525;-65
2022/07/02 02:14:16;;;;;;;4.80;3.70;;;14.60;99.90;;;;;;2113994;28;20388;-65
2022/07/02 02:15:17;;;;;;;5.38;3.47;;;14.70;99.90;;;;;;2113237;28;20016;-65
2022/07/02 02:16:18;;;;;;;4.63;4.05;;;14.60;99.90;;;;;;2113269;28;20386;-66
2022/07/02 02:17:18;;;;;;;5.50;4.00;;;14.60;99.90;;;;;;2114058;28;20459;-66
2022/07/02 02:18:19;;;;;;;4.53;3.90;;;14.60;99.90;;;;;;2113863;28;20024;-65
2022/07/02 02:19:20;;;;;;;4.72;3.55;;;14.60;99.90;;;;;;2113979;28;20080;-66
2022/07/02 02:20:20;;;;;;;4.10;3.70;;;14.60;99.90;;;;;;2114903;28;20603;-65
2022/07/02 02:21:25;;;;;;;5.97;4.10;;;14.60;99.90;;;;;;2113922;28;20377;-65
2022/07/02 02:22:26;;;;;;;4.57;3.70;;;14.60;99.90;;;;;;2113291;28;20023;-66
2022/07/02 02:23:27;;;;;;;5.40;3.70;;;14.60;99.90;;;;;;2113913;28;20039;-66
2022/07/02 02:24:27;;;;;;;4.47;3.70;;;14.60;99.90;;;;;;2113684;28;20031;-65
2022/07/02 02:25:28;;;;;;;4.28;3.88;;;14.60;99.90;;;;;;2113183;28;20028;-65
2022/07/02 02:26:29;;;;;;;4.70;4.20;;;14.60;99.90;;;;;;2112904;28;20035;-65
2022/07/02 02:27:29;;;;;;;4.15;3.70;;;14.60;99.90;;;;;;2113004;28;20031;-65
2022/07/02 02:28:30;;;;;;;6.13;4.13;;;14.60;99.90;;;;;;2104377;28;20039;-67
2022/07/02 02:29:31;;;;;;;4.40;3.90;;;14.50;99.90;;;;;;2104143;28;20032;-67
2022/07/02 02:30:31;;;;;;;4.18;3.50;;;14.60;99.90;;;;;;2112761;28;20160;-66
2022/07/02 02:31:32;;;;;;;4.05;3.50;;;14.50;99.90;;;;;;2113668;28;20031;-67
2022/07/02 02:32:33;;;;;;;4.55;3.50;;;14.50;99.90;;;;;;2113564;28;20031;-67
2022/07/02 02:33:34;;;;;;;3.70;3.40;;;14.50;99.90;;;;;;2113822;28;20024;-66
2022/07/02 02:34:34;;;;;;;3.33;3.03;;;14.50;99.90;;;;;;2113349;28;20032;-66
2022/07/02 02:35:35;;;;;;;3.47;3.17;;;14.50;99.90;;;;;;2113256;28;20910;-66
2022/07/02 02:36:36;;;;;;;4.20;3.35;;;14.50;99.90;;;;;;2113771;28;20031;-65
2022/07/02 02:37:36;;;;;;;3.75;3.35;;;14.40;99.90;;;;;;2113662;27;20031;-66
2022/07/02 02:38:37;;;;;;;3.45;3.15;;;14.40;99.90;;;;;;2112743;28;20024;-66
2022/07/02 02:39:38;;;;;;;4.75;3.75;;;14.50;99.90;;;;;;2112769;28;20055;-65
2022/07/02 02:40:39;;;;;;;3.65;3.35;;;14.50;99.90;;;;;;2112979;28;20107;-67
2022/07/02 02:41:39;;;;;;;4.05;3.30;;;14.40;99.90;;;;;;2113018;28;20027;-67
2022/07/02 02:42:40;;;;;;;4.75;3.53;;;14.50;99.90;;;;;;2113000;28;20027;-66
2022/07/02 02:43:41;;;;;;;3.85;3.38;;;14.40;99.90;;;;;;2113664;28;20026;-66
2022/07/02 02:44:42;;;;;;;3.58;3.28;;;14.40;99.90;;;;;;2113364;28;20028;-66
2022/07/02 02:45:43;;;;;;;4.40;3.28;;;14.40;99.90;;;;;;2113330;28;20031;-66
2022/07/02 02:46:43;;;;;;;5.72;3.33;;;14.50;99.90;;;;;;2113330;28;20089;-65
2022/07/02 02:47:44;;;;;;;4.40;3.20;;;14.40;99.90;;;;;;2112709;28;20114;-66
2022/07/02 02:48:45;;;;;;;4.10;3.47;;;14.40;99.90;;;;;;2112592;28;20027;-66
2022/07/02 02:49:45;;;;;;;5.03;3.65;;;14.50;99.90;;;;;;2113068;27;20016;-66
2022/07/02 02:50:46;;;;;;;3.70;3.40;;;14.40;99.90;;;;;;2113333;28;20027;-65
2022/07/02 02:51:47;;;;;;;5.97;3.60;;;14.40;99.90;;;;;;2113427;28;20690;-65
2022/07/02 02:52:47;;;;;;;3.92;3.30;;;14.50;99.90;;;;;;2113458;28;20081;-65
2022/07/02 02:53:49;;;;;;;4.55;3.65;;;14.50;99.90;;;;;;2113395;28;20454;-65
2022/07/02 02:54:50;;;;;;;4.00;3.60;;;14.50;99.90;;;;;;2113389;28;20503;-65
2022/07/02 02:55:51;;;;;;;4.40;3.30;;;14.50;99.90;;;;;;2113376;28;20039;-65
2022/07/02 02:56:52;;;;;;;4.10;3.70;;;14.50;99.90;;;;;;2113312;28;20477;-65
2022/07/02 02:57:52;;;;;;;4.63;3.90;;;14.50;99.90;;;;;;2113359;28;20032;-65
2022/07/02 02:58:53;;;;;;;3.88;3.45;;;14.50;99.90;;;;;;2113197;28;20488;-65
2022/07/02 02:59:54;;;;;;;6.38;4.20;;;14.40;99.90;;;;;;2112123;28;20024;-64
2022/07/02 03:00:55;;;;;;;6.15;3.92;;;14.40;99.90;;;;;;2112625;28;20027;-67
2022/07/02 03:01:56;;;;;;;5.07;3.60;;;14.50;99.90;;;;;;2113205;28;20038;-64
2022/07/02 03:02:56;;;;;;;4.85;4.22;;;14.40;99.90;;;;;;2112401;28;20520;-65
2022/07/02 03:03:58;;;;;;;4.28;3.88;;;14.40;99.90;;;;;;2112332;28;20023;-63
2022/07/02 03:04:59;;;;;;;4.68;4.00;;;14.50;99.90;;;;;;2113122;27;20043;-63
2022/07/02 03:05:59;;;;;;;6.13;4.32;;;14.40;99.90;;;;;;2104200;28;20047;-64
2022/07/02 03:07:00;;;;;;;4.90;4.40;;;14.50;99.90;;;;;;2095984;28;20040;-64
2022/07/02 03:08:01;;;;;;;6.93;5.20;;;14.40;99.90;;;;;;2095970;28;20117;-65
2022/07/02 03:09:01;;;;;;;6.07;5.20;;;14.50;99.90;;;;;;2112694;28;20055;-65
2022/07/02 03:10:02;;;;;;;6.00;5.40;;;14.50;99.90;;;;;;2113076;27;20033;-64
2022/07/02 03:11:03;;;;;;;7.55;5.57;;;14.50;99.90;;;;;;2114939;28;20591;-67
2022/07/02 03:12:04;;;;;;;6.35;5.70;;;14.50;99.90;;;;;;2113435;28;20461;-65
2022/07/02 03:13:04;;;;;;;8.05;5.60;;;14.50;99.90;;;;;;2112434;28;20075;-66
2022/07/02 03:14:05;;;;;;;8.45;5.70;;;14.40;99.90;;;;;;2112476;28;20107;-67
2022/07/02 03:15:06;;;;;;;6.22;5.63;;;14.40;99.90;;;;;;2112304;28;20076;-65
2022/07/02 03:16:07;;;;;;;6.18;5.40;;;14.40;99.90;;;;;;2104219;28;20023;-66
2022/07/02 03:17:08;;;;;;;5.68;4.90;;;14.40;99.90;;;;;;2104998;28;20081;-65
2022/07/02 03:18:08;;;;;;;5.72;5.13;;;14.40;99.90;;;;;;2112377;28;20620;-65
2022/07/02 03:19:09;;;;;;;6.10;5.22;;;14.40;99.90;;;;;;2103822;28;20099;-66
2022/07/02 03:20:10;;;;;;;5.80;5.07;;;14.40;99.90;;;;;;2104662;28;20024;-66
2022/07/02 03:21:11;;;;;;;5.68;5.07;;;14.40;99.90;;;;;;2104720;28;20028;-66
2022/07/02 03:22:12;;;;;;;5.68;5.05;;;14.40;99.90;;;;;;2104786;28;20081;-66
2022/07/02 03:23:12;;;;;;;5.43;4.88;;;14.40;99.90;;;;;;2113026;28;20096;-65
2022/07/02 03:24:13;;;;;;;6.00;5.28;;;14.30;99.90;;;;;;2112917;28;20057;-65
2022/07/02 03:25:14;;;;;;;7.15;5.13;;;14.40;99.90;;;;;;2104871;28;20039;-65
2022/07/02 03:26:14;;;;;;;6.68;5.43;;;14.40;99.90;;;;;;2104762;28;20044;-65
2022/07/02 03:27:15;;;;;;;5.78;5.10;;;14.40;99.90;;;;;;2106127;28;20059;-66
2022/07/02 03:28:16;;;;;;;5.68;4.93;;;14.40;99.90;;;;;;2105875;28;20105;-66
2022/07/02 03:29:16;;;;;;;5.72;4.95;;;14.40;99.90;;;;;;2105285;28;20084;-66
2022/07/02 03:30:17;;;;;;;5.22;4.72;;;14.40;99.90;;;;;;2105650;28;20028;-66
2022/07/02 03:31:18;;;;;;;5.68;5.00;;;14.40;99.90;;;;;;2105097;28;20482;-66
2022/07/02 03:32:19;;;;;;;5.55;5.03;;;14.40;99.90;;;;;;2105159;28;20016;-66
2022/07/02 03:33:20;;;;;;;5.90;5.32;;;14.40;99.90;;;;;;2112658;28;20020;-66
2022/07/02 03:34:20;;;;;;;7.15;5.70;;;14.40;99.90;;;;;;2112624;28;20019;-66
2022/07/02 03:35:21;;;;;;;6.70;6.00;;;14.40;99.90;;;;;;2104237;28;20024;-65
2022/07/02 03:36:22;;;;;;;6.30;5.68;;;14.30;99.90;;;;;;2104748;28;20032;-67
2022/07/02 03:37:26;;;;;;;7.22;5.88;;;14.30;99.90;;;;;;2104709;28;20036;-67
2022/07/02 03:38:27;;;;;;;8.30;6.00;;;14.30;99.90;;;;;;2112281;28;20020;-66
2022/07/02 03:39:28;;;;;;;6.30;5.70;;;14.30;99.90;;;;;;2112685;28;20039;-65
2022/07/02 03:40:30;;;;;;;6.85;6.15;;;14.30;99.90;;;;;;2104551;28;20028;-66
2022/07/02 03:41:31;;;;;;;6.20;5.60;;;14.20;99.90;;;;;;2105342;28;20036;-65
2022/07/02 03:42:32;;;;;;;6.53;5.72;;;14.20;99.90;;;;;;2113376;28;20048;-66
2022/07/02 03:43:33;;;;;;;6.22;5.63;;;14.20;99.90;;;;;;2113337;28;20050;-66
2022/07/02 03:44:34;;;;;;;5.95;5.35;;;14.30;99.90;;;;;;2105849;28;20035;-65
2022/07/02 03:45:35;;;;;;;6.03;5.53;;;14.20;99.90;;;;;;2105921;28;20480;-66
2022/07/02 03:46:35;;;;;;;6.20;5.45;;;14.30;99.90;;;;;;2106064;28;20103;-67
2022/07/02 03:47:36;;;;;;;5.85;5.25;;;14.30;99.90;;;;;;2105909;28;20035;-65
2022/07/02 03:48:37;;;;;;;6.20;5.60;;;14.30;99.90;;;;;;2105591;28;20039;-65
2022/07/02 03:49:38;;;;;;;6.00;5.40;;;14.30;99.90;;;;;;2105452;28;20032;-64
2022/07/02 03:50:40;;;;;;;7.40;5.60;;;14.40;99.90;;;;;;2106036;28;20036;-65
2022/07/02 03:51:41;;;;;;;5.75;5.20;;;14.40;99.90;;;;;;2106604;28;20032;-65
2022/07/02 03:52:41;;;;;;;6.32;5.72;;;14.40;99.90;;;;;;2106179;28;20051;-65
2022/07/02 03:53:42;;;;;;;5.70;5.18;;;14.40;99.90;;;;;;2105844;28;20056;-67
2022/07/02 03:54:43;;;;;;;6.38;5.47;;;14.40;99.90;;;;;;2105630;28;20136;-66
2022/07/02 03:55:43;;;;;;;6.07;5.55;;;14.40;99.90;;;;;;2105615;28;20027;-67
2022/07/02 03:56:44;;;;;;;6.47;5.75;;;14.40;99.90;;;;;;2106855;28;20154;-67
2022/07/02 03:57:45;;;;;;;6.57;5.80;;;14.50;99.90;;;;;;2114018;28;20089;-66
2022/07/02 03:58:45;;;;;;;6.80;5.72;;;14.50;99.90;;;;;;2113921;28;20028;-66
2022/07/02 03:59:46;;;;;;;6.25;5.38;;;14.50;99.90;;;;;;2115068;28;20153;-66
2022/07/02 04:00:47;;;;;;;5.30;4.80;;;14.50;99.90;;;;;;2115532;28;20027;-66
2022/07/02 04:01:47;;;;;;;6.00;5.40;;;14.50;99.90;;;;;;2114967;28;20611;-65
2022/07/02 04:02:48;;;;;;;7.15;5.90;;;14.60;99.90;;;;;;2112750;28;20072;-67
2022/07/02 04:03:49;;;;;;;6.07;5.50;;;14.60;99.90;;;;;;2096230;28;20082;-67
2022/07/02 04:04:50;;;;;;;5.95;5.35;;;14.70;99.90;;;;;;2104494;28;20016;-66
2022/07/02 04:05:50;;;;;;;6.43;5.43;;;14.70;99.90;;;;;;2112663;28;20038;-68
2022/07/02 04:06:51;;;;;;;6.18;5.57;;;14.90;99.90;;;;;;2112832;28;20074;-65
2022/07/02 04:07:52;;;;;;;5.75;5.22;;;15.10;99.90;;;;;;2104273;28;20241;-65
2022/07/02 04:08:53;;;;;;;5.65;5.15;;;15.40;99.90;;;;;;2105035;28;20488;-65
2022/07/02 04:09:53;;;;;;;8.20;4.97;;;15.80;99.90;;;;;;2104730;28;20402;-65
2022/07/02 04:10:54;;;;;;;5.93;4.65;;;16.20;99.90;;;;;;2104895;28;20035;-65
2022/07/02 04:11:55;;;;;;;5.50;4.72;;;16.60;99.90;;;;;;2105074;28;20027;-65
2022/07/02 04:12:55;;;;;;;5.00;4.50;;;17.00;99.90;;;;;;2105063;28;20108;-66
2022/07/02 04:13:56;;;;;;;5.10;4.40;;;17.40;99.90;;;;;;2104976;28;20398;-66
2022/07/02 04:14:57;;;;;;;4.70;4.30;;;17.90;99.90;;;;;;2105044;28;20028;-66
2022/07/02 04:15:58;;;;;;;5.22;4.72;;;18.20;99.90;;;;;;2112885;28;20027;-65
2022/07/02 04:16:58;;;;;;;5.10;4.20;;;18.60;99.90;;;;;;2112745;28;20531;-65
2022/07/02 04:17:59;;;;;;;4.90;4.13;;;18.90;99.90;;;;;;2112892;28;20043;-66
2022/07/02 04:19:00;;;;;;;5.25;4.40;;;19.20;99.90;;;;;;2113258;28;20098;-65
2022/07/02 04:20:01;;;;;;;5.20;4.13;;;19.50;99.90;;;;;;2113600;28;20065;-67
2022/07/02 04:21:01;;;;;;;4.50;4.10;;;19.70;99.90;;;;;;2114398;28;20035;-68
2022/07/02 04:22:02;;;;;;;4.30;3.90;;;19.90;99.90;;;;;;2113075;28;20065;-68
2022/07/02 04:23:03;;;;;;;4.30;3.90;;;20.10;99.90;;;;;;2113157;28;20493;-66
2022/07/02 04:24:04;;;;;;;4.95;4.30;;;20.30;99.90;;;;;;2103873;28;20028;-67
2022/07/02 04:25:05;;;;;;;4.50;4.10;;;20.50;99.90;;;;;;2103997;28;20032;-67
2022/07/02 04:26:06;;;;;;;5.22;4.20;;;20.60;99.90;;;;;;2112216;28;20043;-64
2022/07/02 04:27:07;;;;;;;5.72;4.18;;;20.70;99.90;;;;;;2112395;28;20059;-66
2022/07/02 04:28:08;;;;;;;6.07;4.00;;;20.80;99.90;;;;;;2112901;28;20028;-66
2022/07/02 04:29:09;;;;;;;7.18;3.95;;;20.90;99.90;;;;;;2112112;28;20031;-66
2022/07/02 04:30:10;;;;;;;4.90;3.85;;;21.10;99.90;;;;;;2112299;28;20019;-67
2022/07/02 04:31:10;;;;;;;4.20;3.80;;;21.20;99.90;;;;;;2112213;28;20499;-66
2022/07/02 04:32:11;;;;;;;5.50;3.97;;;21.30;99.90;;;;;;2112354;28;20051;-66
2022/07/02 04:33:12;;;;;;;5.20;4.30;;;21.40;99.90;;;;;;2113033;28;20027;-65
2022/07/02 04:34:12;;;;;;;6.78;4.20;;;21.40;99.90;;;;;;2112242;28;20035;-65
2022/07/02 04:35:13;;;;;;;4.50;4.10;;;21.50;99.90;;;;;;2112165;28;20400;-65
2022/07/02 04:36:14;;;;;;;4.80;3.70;;;21.70;99.90;;;;;;2112680;28;20385;-65
2022/07/02 04:37:14;;;;;;;4.78;4.25;;;21.80;99.90;;;;;;2112756;28;20601;-65
2022/07/02 04:38:16;;;;;;;5.88;4.05;;;21.90;99.90;;;;;;2112609;28;20442;-66
2022/07/02 04:39:17;;;;;;;3.97;3.63;;;21.90;99.90;;;;;;2111726;28;20023;-66
2022/07/02 04:40:17;;;;;;;4.70;3.67;;;22.10;99.90;;;;;;2112004;28;20119;-66
2022/07/02 04:41:18;;;;;;;3.88;3.58;;;22.20;99.90;;;;;;2112137;28;20023;-66
2022/07/02 04:42:19;;;;;;;4.20;3.80;;;22.20;99.90;;;;;;2112555;28;20023;-66
2022/07/02 04:43:19;;;;;;;4.25;3.50;;;22.30;99.90;;;;;;2112036;28;20796;-65
2022/07/02 04:44:20;;;;;;;4.70;3.72;;;22.40;99.90;;;;;;2112155;28;20118;-64
2022/07/02 04:45:21;;;;;;;4.43;3.40;;;22.50;99.90;;;;;;2112824;28;20378;-65
2022/07/02 04:46:22;;;;;;;3.88;3.42;;;22.60;99.90;;;;;;2112892;28;20060;-66
2022/07/02 04:47:22;;;;;;;4.05;3.25;;;22.70;99.90;;;;;;2112663;28;20765;-65
2022/07/02 04:48:23;;;;;;;3.60;3.30;;;22.70;99.60;;;;;;2112550;28;20081;-65
2022/07/02 04:49:24;;;;;;;4.30;3.75;;;22.80;99.20;;;;;;2112324;28;20077;-64
2022/07/02 04:50:24;;;;;;;4.03;3.65;;;22.90;98.40;;;;;;2113707;28;20130;-65
2022/07/02 04:51:25;;;;;;;3.70;3.40;;;22.90;98.00;;;;;;2114284;28;20042;-64
2022/07/02 04:52:26;;;;;;;5.18;3.70;;;23.00;97.80;;;;;;2114445;28;20027;-67
2022/07/02 04:53:26;;;;;;;4.00;3.60;;;23.10;97.20;;;;;;2114538;28;20087;-65
2022/07/02 04:54:27;;;;;;;4.05;3.65;;;23.20;96.80;;;;;;2114384;28;20088;-66
2022/07/02 04:55:28;;;;;;;5.60;4.00;;;23.20;96.00;;;;;;2113555;28;20027;-66
2022/07/02 04:56:28;;;;;;;4.65;3.63;;;23.20;95.80;;;;;;2113421;28;20603;-65
2022/07/02 04:57:29;;;;;;;4.53;3.60;;;23.20;95.40;;;;;;2114135;28;20036;-66
2022/07/02 04:58:30;;;;;;;4.78;3.80;;;23.30;94.80;;;;;;2114084;28;20104;-66
2022/07/02 04:59:30;;;;;;;5.45;3.53;;;23.30;94.40;;;;;;2113342;28;20023;-66
2022/07/02 05:00:31;;;;;;;3.67;3.35;;;23.30;94.40;;;;;;2105082;28;20024;-65
2022/07/02 05:01:32;;;;;;;4.03;3.50;;;23.30;94.30;;;;;;2113565;28;20634;-66
2022/07/02 05:02:34;;;;;;;3.40;3.10;;;23.40;93.90;;;;;;2114119;28;20400;-66
2022/07/02 05:03:34;;;;;;;7.72;3.47;;;23.50;93.50;;;;;;2113547;28;20043;-65
2022/07/02 05:04:35;;;;;;;3.97;3.33;;;23.60;93.10;;;;;;2113572;28;20067;-66
2022/07/02 05:05:36;;;;;;;4.10;3.47;;;23.60;92.60;;;;;;2114015;28;20035;-65
2022/07/02 05:06:36;;;;;;;3.95;3.15;;;23.60;92.10;;;;;;2114144;28;20440;-66
2022/07/02 05:07:37;;;;;;;3.50;2.80;;;23.70;91.90;;;;;;2114285;28;20098;-65
2022/07/02 05:08:38;;;;;;;4.97;3.28;;;23.70;91.70;;;;;;2113530;28;20038;-66
2022/07/02 05:09:39;;;;;;;3.30;3.00;;;23.80;91.40;;;;;;2113235;28;20089;-66
2022/07/02 05:10:39;;;;;;;4.55;3.13;;;23.80;91.20;;;;;;2113477;28;20028;-65
2022/07/02 05:11:40;;;;;;;4.63;2.72;;;23.90;90.90;;;;;;2113511;28;20035;-66
2022/07/02 05:12:41;;;;;;;4.63;3.08;;;23.90;90.60;;;;;;2114443;28;20028;-65
2022/07/02 05:13:43;;;;;;;3.42;3.13;;;24.00;90.20;;;;;;2114179;28;20134;-66
2022/07/02 05:14:44;;;;;;;4.57;3.00;;;24.10;89.50;;;;;;2113371;28;20027;-66
2022/07/02 05:15:45;;;;;;;5.10;3.70;;;24.20;88.90;;;;;;2113679;28;20024;-65
2022/07/02 05:16:45;;;;;;;4.20;3.78;;;24.20;89.00;;;;;;2114167;28;20443;-65
2022/07/02 05:17:46;;;;;;;5.25;3.88;;;24.20;89.00;;;;;;2113450;28;20057;-65
2022/07/02 05:18:47;;;;;;;4.80;3.63;;;24.30;88.30;;;;;;2104930;28;20514;-66
2022/07/02 05:19:48;;;;;;;3.92;3.45;;;24.30;88.10;;;;;;2113154;28;20734;-65
2022/07/02 05:20:48;;;;;;;4.55;3.58;;;24.40;87.20;;;;;;2114178;28;20032;-65